Les Foulées Châtillonnaises

dimanche 15 octobre 2023Châtillon, 92, FranceRunning

258 participants136 Femmes • 122 Hommes

29 licenciés (11%) • 229 non-licenciés (89%)

Temps moyen : 00:28:48

PositionNom/PrénomTps officielClubDossardCatégorieKm/hActions
101SANCHEZ LAURE00:27:205225SEF (11 / 42)10.9
102KREDER HANAE00:27:295074SEF (12 / 42)10.9
103GORIN JULIEN00:27:295170M1M (10 / 10)10.9
104GEORGE CHRISTOPHE00:27:335010M4M (5 / 9)10.8
105ORGEAS STEVE00:27:355174M2M (11 / 17)10.8
106ORGEAS AVA00:27:36SCM CHATILLON-SOUS-BAGNEUX5175MIF (1 / 6)10.8
107GUERIN DAPHNE00:27:455125MIF (2 / 6)10.8
108ROSA DENIS00:27:465124M3M (7 / 12)10.8
109MANTAFOUNIS CHRYSOVALANTIS00:27:565022M0M (6 / 10)10.7
110URIBE GUIZA JORGE00:28:015222M0M (7 / 10)10.7
111MORLIERE MAXIME00:28:025221M0M (8 / 10)10.7
112LEMAIRE AURELIE00:28:065056M1F (2 / 14)10.6
113MONMARCHE-FONTAINE ROXANE00:28:095227ESF (1 / 15)10.6
114LECLERE CHRISTOPHE00:28:125063M2M (12 / 17)10.6
115SAHIN GORKEM00:28:25EQUIPE SCIENCES PO PARIS5209SEM (19 / 28)10.5
116PREVELATO CAMILIA00:28:26EQUIPE SCIENCES PO PARIS5126ESF (2 / 15)10.5
117AIZOUKY MYRIAM00:28:27543MIF (3 / 6)10.5
118ROUHAULT ALICE00:28:295132CAF (3 / 9)10.5
119RIEG CHRISTELLE00:28:315033M3F (1 / 10)10.5
120ROSSO JULIETTE00:28:32PUC5156SEF (13 / 42)10.5
121ROUHAULT LAURENCE00:28:335133M2F (1 / 13)10.5
122LABARTHE-PIOL CELESTE00:28:35173CAF (4 / 9)10.4
123MARTEVILLE HENRI00:28:375220SEM (20 / 28)10.4
124PAULO JEAN PAUL00:28:375198M4M (6 / 9)10.4
125GUY OCEANNE00:28:39EQUIPE SCIENCES PO PARIS5226SEF (14 / 42)10.4
126STOUFF CHARLOTTE00:28:475083CAF (5 / 9)10.4
127FLORY PIERRE-ELISEE00:28:52SOCIETE ORANO5093SEM (21 / 28)10.3
128DUTREUILH MATHILDE00:28:52SOCIETE ORANO5092SEF (15 / 42)10.3
129GEORGE ZOE00:29:025011SEF (16 / 42)10.3
130PHUNG PASCAL00:29:035005M2M (13 / 17)10.3
131MALLET JOSEPHINE00:29:055158ESF (3 / 15)10.3
132GRAIGNIC MORGANE00:29:095195M3F (2 / 10)10.2
133ROSSO FLORENCE00:29:105155M4F (3 / 9)10.2
134DAHNOUN FARIDA00:29:185163M5F (1 / 6)10.2
135REBAHI PHILIPPE00:29:19CA MONTREUIL5164M5F (2 / 6)10.2
136DEVER AMELIE00:29:385045M1F (3 / 14)10.1
137DARANI LENA00:29:435081MIF (4 / 6)10.0
138DA ISABEL NOELLE00:29:44299M4F (4 / 9)10.0
139POLINI ISABELLE00:29:445246M5F (3 / 6)10.0
140DARANI MARIELLE00:29:455082M2F (2 / 13)10.0
141QUERE LEA-CHRISTINE00:29:45EQUIPE SCIENCES PO PARIS5172JUF (1 / 2)10.0
142HENNON DOMITILLE00:29:475009SEF (17 / 42)10.0
143FELLER ISALINE00:29:57EQUIPE SCIENCES PO PARIS5219ESF (4 / 15)10.0
144GIROUX MELINE00:30:115089CAF (6 / 9)9.9
145DE MONTALEMBERT YSE00:30:22EQUIPE SCIENCES PO PARIS5169ESF (5 / 15)9.8
146BELIN JULIE00:30:235214M0F (5 / 10)9.8
147ALBERT SEGOLENE00:30:255040SEF (18 / 42)9.8
148LAUDET VIRGINIE00:30:365215M1F (4 / 14)9.8
149DANIEL LAURA00:30:465071M0F (6 / 10)9.7
150LELIEVRE ARNAUD00:30:475072M0M (9 / 10)9.7